Time;durP1;ratioP1;P1;durP2;ratioP2;P2;SDS_P1;SDS_P2;PMS_P1;PMS_P2;Temp;Humidity;BMP_temperature;BMP_pressure;BME280_temperature;BME280_humidity;BME280_pressure;Samples;Min_cycle;Max_cycle;Signal;HPM_P1;HPM_P2
2022/10/10 00:00:35;;;;;;;0.30;0.30;;;;;;;-145.16;100.00;78458.31;645171;217;32420;-71
2022/10/10 00:06:53;;;;;;;0.10;0.10;;;;;;;-145.16;100.00;78461.33;653683;217;32393;-72
2022/10/10 00:13:11;;;;;;;0.20;0.20;;;;;;;-145.16;100.00;78464.34;645159;217;32372;-72
2022/10/10 00:19:29;;;;;;;0.10;0.10;;;;;;;-145.16;100.00;78471.40;653662;217;32390;-72
2022/10/10 00:25:47;;;;;;;0.07;0.07;;;;;;;-145.16;100.00;78473.41;653681;218;32403;-72
2022/10/10 00:32:05;;;;;;;0.40;0.40;;;;;;;-145.16;100.00;78485.50;645182;217;32385;-72
2022/10/10 00:38:23;;;;;;;0.22;0.13;;;;;;;-145.16;100.00;78479.45;645180;217;32360;-72
2022/10/10 00:44:42;;;;;;;4.80;0.63;;;;;;;-145.16;100.00;78495.57;645198;217;32621;-72
2022/10/10 00:51:00;;;;;;;0.03;0.03;;;;;;;-145.16;100.00;78486.51;653740;217;33334;-72
2022/10/10 00:57:19;;;;;;;0.90;0.30;;;;;;;-145.16;100.00;78492.55;645151;218;33313;-72
2022/10/10 01:03:39;;;;;;;0.13;0.13;;;;;;;-145.16;100.00;78482.48;645004;217;32397;-72
2022/10/10 01:09:58;;;;;;;0.03;0.03;;;;;;;-145.16;100.00;78483.48;645187;217;32353;-72
2022/10/10 01:16:18;;;;;;;0.10;0.10;;;;;;;-145.16;100.00;78478.45;653699;218;33274;-72
2022/10/10 01:22:40;;;;;;;0.10;0.10;;;;;;;-145.16;100.00;78489.53;653666;217;33394;-71
2022/10/10 01:29:00;;;;;;;0.10;0.10;;;;;;;-145.16;100.00;78490.53;645183;217;32336;-72
2022/10/10 01:35:18;;;;;;;0.40;0.40;;;;;;;-145.16;100.00;78491.54;645160;217;32378;-72
2022/10/10 01:41:39;;;;;;;0.37;0.23;;;;;;;-145.16;100.00;78496.58;645172;218;32420;-72
2022/10/10 01:47:57;;;;;;;0.03;0.03;;;;;;;-145.16;100.00;78492.55;645169;217;32410;-72
2022/10/10 01:54:29;;;;;;;0.10;0.10;;;;;;;-145.16;100.00;78495.57;653667;217;33347;-72
2022/10/10 02:00:48;;;;;;;0.00;0.00;;;;;;;-145.16;100.00;78487.52;645182;217;32328;-72
2022/10/10 02:07:07;;;;;;;0.03;0.03;;;;;;;-145.16;100.00;78483.48;645190;217;32325;-72
2022/10/10 02:13:25;;;;;;;0.10;0.10;;;;;;;-145.16;100.00;78483.48;645177;218;32375;-72
2022/10/10 02:19:44;;;;;;;0.03;0.03;;;;;;;-145.16;100.00;78477.44;645173;217;34340;-72
2022/10/10 02:26:02;;;;;;;0.10;0.10;;;;;;;-145.16;100.00;78478.45;645213;217;35364;-72
2022/10/10 02:32:20;;;;;;;0.50;0.30;;;;;;;-145.16;100.00;78476.44;653683;217;32343;-72
2022/10/10 02:38:39;;;;;;;1.40;0.80;;;;;;;-145.16;100.00;78470.39;645172;217;32403;-72
2022/10/10 02:44:57;;;;;;;0.60;0.20;;;;;;;-145.16;100.00;78469.39;645173;217;32386;-72
2022/10/10 02:51:16;;;;;;;0.10;0.10;;;;;;;-145.16;100.00;78467.38;653678;217;32384;-72
2022/10/10 02:57:36;;;;;;;0.50;0.40;;;;;;;-145.16;100.00;78479.45;645027;217;32375;-72
2022/10/10 03:03:55;;;;;;;0.47;0.47;;;;;;;-145.16;100.00;78493.55;653693;218;34353;-71
2022/10/10 03:10:13;;;;;;;0.30;0.30;;;;;;;-145.16;100.00;78489.53;645151;218;32424;-71
2022/10/10 03:16:31;;;;;;;2.40;0.90;;;;;;;-145.16;100.00;78477.44;645196;217;32383;-71
2022/10/10 03:22:50;;;;;;;0.03;0.03;;;;;;;-145.16;100.00;78481.47;653688;217;34323;-72
2022/10/10 03:29:08;;;;;;;1.17;0.77;;;;;;;-145.16;100.00;78491.54;645184;217;34346;-72
2022/10/10 03:35:26;;;;;;;0.10;0.10;;;;;;;-145.16;100.00;78511.68;645164;217;33355;-72
2022/10/10 03:41:44;;;;;;;1.87;1.17;;;;;;;-145.16;100.00;78515.71;653670;217;32424;-72
2022/10/10 03:48:02;;;;;;;0.50;0.40;;;;;;;-145.16;100.00;78516.72;645177;217;32371;-72
2022/10/10 03:54:21;;;;;;;1.53;1.43;;;;;;;-145.16;100.00;78537.86;645173;217;32443;-72
2022/10/10 04:00:39;;;;;;;0.80;0.80;;;;;;;-145.16;100.00;78547.94;645170;217;35353;-72
2022/10/10 04:06:57;;;;;;;0.10;0.10;;;;;;;-145.16;100.00;78576.13;645173;217;32411;-71
2022/10/10 04:13:15;;;;;;;2.10;2.00;;;;;;;-145.16;100.00;78545.92;645163;217;33433;-72
2022/10/10 04:19:33;;;;;;;0.37;0.37;;;;;;;-145.16;100.00;78543.91;653678;218;33401;-72
2022/10/10 04:25:52;;;;;;;1.30;1.20;;;;;;;-145.16;100.00;78549.95;645173;217;32368;-72
2022/10/10 04:32:10;;;;;;;0.10;0.07;;;;;;;-145.16;100.00;78547.94;653676;218;34594;-72
2022/10/10 04:38:28;;;;;;;0.73;0.57;;;;;;;-145.16;100.00;78557.00;645213;217;34359;-72
2022/10/10 04:44:47;;;;;;;0.70;0.40;;;;;;;-145.16;100.00;78619.44;645164;217;32370;-72
2022/10/10 04:51:05;;;;;;;0.00;0.00;;;;;;;-145.16;100.00;78597.28;645191;217;32361;-72
2022/10/10 04:57:25;;;;;;;0.47;0.47;;;;;;;-145.16;100.00;78637.56;653630;217;32375;-71
2022/10/10 05:03:43;;;;;;;0.33;0.33;;;;;;;-145.16;100.00;78596.28;645185;218;32381;-72
2022/10/10 05:10:02;;;;;;;0.60;0.47;;;;;;;-145.16;100.00;78601.31;653661;217;32400;-72
2022/10/10 05:16:20;;;;;;;0.20;0.20;;;;;;;-145.16;100.00;78610.38;653693;217;33350;-72
2022/10/10 05:22:39;;;;;;;0.63;0.63;;;;;;;-145.16;100.00;78648.64;645165;217;32381;-71
2022/10/10 05:28:57;;;;;;;0.40;0.40;;;;;;;-145.16;100.00;78602.31;653677;215;32314;-72
2022/10/10 05:35:16;;;;;;;0.10;0.10;;;;;;;-145.16;100.00;78601.31;645190;217;32388;-72
2022/10/10 05:41:34;;;;;;;0.60;0.53;;;;;;;-145.16;100.00;78596.28;641031;217;33517;-72
2022/10/10 05:47:53;;;;;;;0.30;0.30;;;;;;;-145.16;100.00;78600.30;645161;217;32391;-72
2022/10/10 05:54:11;;;;;;;0.50;0.30;;;;;;;-145.16;100.00;78651.66;645157;217;32386;-72
2022/10/10 06:00:29;;;;;;;1.00;0.60;;;;;;;-145.16;100.00;78575.13;645159;217;32387;-72
2022/10/10 06:06:49;;;;;;;2.27;2.00;;;;;;;-145.16;100.00;78573.11;645043;217;32381;-72
2022/10/10 06:13:10;;;;;;;0.40;0.40;;;;;;;-145.16;100.00;78527.80;645021;217;32418;-72
2022/10/10 06:19:28;;;;;;;0.37;0.37;;;;;;;-145.16;100.00;78424.07;653645;218;32399;-72
2022/10/10 06:25:46;;;;;;;0.10;0.10;;;;;;;-145.16;100.00;78162.25;653641;217;32376;-72
2022/10/10 06:32:04;;;;;;;0.50;0.50;;;;;;;-145.16;100.00;78050.48;645113;217;34373;-72
2022/10/10 06:38:23;;;;;;;0.00;0.00;;;;;;;-145.16;100.00;77916.56;645193;218;35592;-73
2022/10/10 06:44:42;;;;;;;0.10;0.10;;;;;;;-145.16;100.00;77860.18;645264;217;34588;-72
2022/10/10 06:51:00;;;;;;;1.05;0.98;;;;;;;-145.16;100.00;77694.05;645168;217;43118;-72
2022/10/10 06:57:20;;;;;;;0.90;0.90;;;;;;;-145.16;100.00;77455.45;645083;218;37708;-73
2022/10/10 07:03:38;;;;;;;0.40;0.40;;;;;;;-145.16;100.00;77299.41;645174;217;32381;-73
2022/10/10 07:09:57;;;;;;;0.52;0.52;;;;;;;-145.16;100.00;77308.47;653663;217;33381;-73
2022/10/10 07:16:15;;;;;;;0.30;0.30;;;;;;;-145.16;100.00;77332.63;645176;217;32352;-73
2022/10/10 07:22:33;;;;;;;0.20;0.20;;;;;;;-145.16;100.00;77278.27;645195;217;43027;-73
2022/10/10 07:28:55;;;;;;;0.20;0.20;;;;;;;-145.16;100.00;77205.78;645162;217;32735;-73
2022/10/10 07:35:13;;;;;;;0.20;0.20;;;;;;;-145.16;100.00;76987.34;653664;217;32388;-73
2022/10/10 07:41:31;;;;;;;0.40;0.40;;;;;;;-145.16;100.00;77013.52;645143;217;32368;-74
2022/10/10 07:47:50;;;;;;;0.50;0.50;;;;;;;-145.16;100.00;76760.86;645127;218;32345;-73
2022/10/10 07:54:08;;;;;;;0.65;0.65;;;;;;;-145.16;100.00;77077.94;645181;218;32372;-72
2022/10/10 08:00:26;;;;;;;0.30;0.30;;;;;;;-145.16;100.00;77427.26;645162;218;32383;-74
2022/10/10 08:06:44;;;;;;;0.75;0.75;;;;;;;-145.16;100.00;77442.36;653667;218;32377;-73
2022/10/10 08:13:02;;;;;;;1.23;1.23;;;;;;;-145.16;100.00;77663.84;645169;218;32367;-73
2022/10/10 08:19:21;;;;;;;0.47;0.47;;;;;;;-145.16;100.00;77595.39;653644;217;43092;-73
2022/10/10 08:25:39;;;;;;;0.20;0.20;;;;;;;-145.16;100.00;77567.20;645185;217;32389;-74
2022/10/10 08:31:57;;;;;;;0.40;0.25;;;;;;;-145.16;100.00;77413.16;645174;217;32429;-73
2022/10/10 08:38:15;;;;;;;0.75;0.55;;;;;;;-145.16;100.00;77136.33;645179;217;32403;-73
2022/10/10 08:44:34;;;;;;;2.22;1.02;;;;;;;-145.16;100.00;76915.88;653681;217;32361;-74
2022/10/10 08:50:54;;;;;;;0.70;0.70;;;;;;;-145.16;100.00;77120.22;645037;217;32362;-74
2022/10/10 08:57:13;;;;;;;0.30;0.30;;;;;;;-145.16;100.00;76974.26;642657;217;32546;-73
2022/10/10 09:00:17;;;;;;;0.30;0.30;;;;;;;;;;635209;226;22701;-73
2022/10/10 09:05:39;;;;;;;0.60;0.60;;;;;;;;;;645172;217;32399;-74
2022/10/10 09:11:07;;;;;;;1.30;1.20;;;;;;;;;;653683;217;32605;-74
2022/10/10 09:16:29;;;;;;;0.75;0.62;;;;;;;;;;653659;217;32426;-71
2022/10/10 09:21:51;;;;;;;0.32;0.32;;;;;;;;;;645177;217;43013;-72
2022/10/10 09:36:05;;;;;;;1.62;0.82;;;;;;;;;;645041;217;32386;-74
2022/10/10 09:50:18;;;;;;;0.65;0.65;;;;;;;;;;645165;217;32421;-74
2022/10/10 09:55:40;;;;;;;1.50;1.12;;;;;;;;;;653671;217;32393;-74
